sensor_id;sensor_type;location;lat;lon;timestamp;pressure;altitude;pressure_sealevel;temperature;humidity
54936;BME280;40838;50.676;7.838;2023-04-06T00:00:07;98563.56;;;-4.80;100.00
54936;BME280;40838;50.676;7.838;2023-04-06T00:02:36;98554.81;;;-4.87;100.00
54936;BME280;40838;50.676;7.838;2023-04-06T00:05:03;98552.97;;;-5.01;100.00
54936;BME280;40838;50.676;7.838;2023-04-06T00:07:30;98556.84;;;-4.97;100.00
54936;BME280;40838;50.676;7.838;2023-04-06T00:09:58;98551.38;;;-5.11;100.00
54936;BME280;40838;50.676;7.838;2023-04-06T00:12:25;98547.69;;;-5.16;100.00
54936;BME280;40838;50.676;7.838;2023-04-06T00:14:52;98552.88;;;-5.16;100.00
54936;BME280;40838;50.676;7.838;2023-04-06T00:17:20;98549.19;;;-5.30;100.00
54936;BME280;40838;50.676;7.838;2023-04-06T00:19:48;98552.34;;;-5.51;100.00
54936;BME280;40838;50.676;7.838;2023-04-06T00:22:15;98550.63;;;-5.67;100.00
54936;BME280;40838;50.676;7.838;2023-04-06T00:24:44;98538.34;;;-5.81;100.00
54936;BME280;40838;50.676;7.838;2023-04-06T00:27:10;98539.34;;;-5.90;100.00
54936;BME280;40838;50.676;7.838;2023-04-06T00:29:39;98534.97;;;-6.06;100.00
54936;BME280;40838;50.676;7.838;2023-04-06T00:32:06;98535.97;;;-6.07;100.00
54936;BME280;40838;50.676;7.838;2023-04-06T00:34:33;98535.34;;;-6.26;100.00
54936;BME280;40838;50.676;7.838;2023-04-06T00:37:01;98529.81;;;-6.31;100.00
54936;BME280;40838;50.676;7.838;2023-04-06T00:39:28;98537.13;;;-6.42;100.00
54936;BME280;40838;50.676;7.838;2023-04-06T00:41:55;98527.88;;;-6.37;100.00
54936;BME280;40838;50.676;7.838;2023-04-06T00:44:22;98530.97;;;-6.58;100.00
54936;BME280;40838;50.676;7.838;2023-04-06T00:46:49;98525.94;;;-6.43;100.00
54936;BME280;40838;50.676;7.838;2023-04-06T00:49:16;98521.88;;;-6.21;100.00
54936;BME280;40838;50.676;7.838;2023-04-06T00:51:43;98522.38;;;-6.34;100.00
54936;BME280;40838;50.676;7.838;2023-04-06T00:54:12;98520.25;;;-6.38;100.00
54936;BME280;40838;50.676;7.838;2023-04-06T00:56:38;98508.59;;;-6.42;100.00
54936;BME280;40838;50.676;7.838;2023-04-06T00:59:05;98519.13;;;-6.69;100.00
54936;BME280;40838;50.676;7.838;2023-04-06T01:04:16;98509.88;;;-6.38;100.00
54936;BME280;40838;50.676;7.838;2023-04-06T01:06:43;98500.78;;;-6.10;100.00
54936;BME280;40838;50.676;7.838;2023-04-06T01:09:12;98494.31;;;-6.22;100.00
54936;BME280;40838;50.676;7.838;2023-04-06T01:11:39;98494.00;;;-6.11;100.00
54936;BME280;40838;50.676;7.838;2023-04-06T01:14:09;98494.47;;;-6.07;100.00
54936;BME280;40838;50.676;7.838;2023-04-06T01:16:57;98497.69;;;-6.05;100.00
54936;BME280;40838;50.676;7.838;2023-04-06T01:19:28;98488.44;;;-5.99;100.00
54936;BME280;40838;50.676;7.838;2023-04-06T01:21:55;98485.88;;;-6.08;100.00
54936;BME280;40838;50.676;7.838;2023-04-06T01:24:49;98480.03;;;-6.18;100.00
54936;BME280;40838;50.676;7.838;2023-04-06T01:27:22;98477.31;;;-6.25;100.00
54936;BME280;40838;50.676;7.838;2023-04-06T01:30:09;98476.84;;;-6.36;100.00
54936;BME280;40838;50.676;7.838;2023-04-06T01:32:42;98477.81;;;-6.46;100.00
54936;BME280;40838;50.676;7.838;2023-04-06T01:35:12;98476.97;;;-6.13;100.00
54936;BME280;40838;50.676;7.838;2023-04-06T01:37:48;98474.19;;;-6.12;100.00
54936;BME280;40838;50.676;7.838;2023-04-06T01:40:24;98473.56;;;-6.06;100.00
54936;BME280;40838;50.676;7.838;2023-04-06T01:42:51;98464.50;;;-5.70;100.00
54936;BME280;40838;50.676;7.838;2023-04-06T01:45:27;98460.44;;;-5.65;100.00
54936;BME280;40838;50.676;7.838;2023-04-06T01:47:59;98456.06;;;-5.64;100.00
54936;BME280;40838;50.676;7.838;2023-04-06T01:50:28;98467.69;;;-5.60;100.00
54936;BME280;40838;50.676;7.838;2023-04-06T01:52:54;98460.25;;;-5.63;100.00
54936;BME280;40838;50.676;7.838;2023-04-06T01:55:24;98459.75;;;-5.59;100.00
54936;BME280;40838;50.676;7.838;2023-04-06T01:58:29;98459.22;;;-5.54;100.00
54936;BME280;40838;50.676;7.838;2023-04-06T02:00:57;98454.34;;;-5.49;100.00
54936;BME280;40838;50.676;7.838;2023-04-06T02:03:26;98455.94;;;-5.48;100.00
54936;BME280;40838;50.676;7.838;2023-04-06T02:06:03;98452.56;;;-5.48;100.00
54936;BME280;40838;50.676;7.838;2023-04-06T02:08:35;98448.72;;;-5.61;100.00
54936;BME280;40838;50.676;7.838;2023-04-06T02:11:03;98456.09;;;-5.72;100.00
54936;BME280;40838;50.676;7.838;2023-04-06T02:13:38;98450.56;;;-5.69;100.00
54936;BME280;40838;50.676;7.838;2023-04-06T02:16:05;98453.03;;;-5.76;100.00
54936;BME280;40838;50.676;7.838;2023-04-06T02:18:32;98447.19;;;-5.78;100.00
54936;BME280;40838;50.676;7.838;2023-04-06T02:20:59;98442.47;;;-5.83;100.00
54936;BME280;40838;50.676;7.838;2023-04-06T02:23:26;98448.16;;;-5.79;100.00
54936;BME280;40838;50.676;7.838;2023-04-06T02:25:53;98449.72;;;-5.62;100.00
54936;BME280;40838;50.676;7.838;2023-04-06T02:28:21;98444.34;;;-5.60;100.00
54936;BME280;40838;50.676;7.838;2023-04-06T02:30:48;98443.63;;;-5.46;100.00
54936;BME280;40838;50.676;7.838;2023-04-06T02:33:15;98443.66;;;-5.54;100.00
54936;BME280;40838;50.676;7.838;2023-04-06T02:35:47;98438.13;;;-5.51;100.00
54936;BME280;40838;50.676;7.838;2023-04-06T02:38:14;98431.06;;;-5.34;100.00
54936;BME280;40838;50.676;7.838;2023-04-06T02:40:44;98436.06;;;-5.56;100.00
54936;BME280;40838;50.676;7.838;2023-04-06T02:43:24;98435.66;;;-5.75;100.00
54936;BME280;40838;50.676;7.838;2023-04-06T02:45:59;98439.00;;;-6.06;100.00
54936;BME280;40838;50.676;7.838;2023-04-06T02:48:26;98435.22;;;-6.35;100.00
54936;BME280;40838;50.676;7.838;2023-04-06T02:50:52;98428.72;;;-6.47;100.00
54936;BME280;40838;50.676;7.838;2023-04-06T02:53:19;98430.69;;;-6.41;100.00
54936;BME280;40838;50.676;7.838;2023-04-06T02:55:46;98432.97;;;-6.54;100.00
54936;BME280;40838;50.676;7.838;2023-04-06T02:58:13;98424.56;;;-6.73;100.00
54936;BME280;40838;50.676;7.838;2023-04-06T03:00:49;98423.88;;;-6.50;100.00
54936;BME280;40838;50.676;7.838;2023-04-06T03:03:16;98430.31;;;-6.30;100.00
54936;BME280;40838;50.676;7.838;2023-04-06T03:05:44;98428.63;;;-6.06;100.00
54936;BME280;40838;50.676;7.838;2023-04-06T03:08:12;98423.97;;;-6.19;100.00
54936;BME280;40838;50.676;7.838;2023-04-06T03:10:44;98428.69;;;-6.22;100.00
54936;BME280;40838;50.676;7.838;2023-04-06T03:13:12;98434.22;;;-6.34;100.00
54936;BME280;40838;50.676;7.838;2023-04-06T03:15:45;98430.66;;;-6.33;100.00
54936;BME280;40838;50.676;7.838;2023-04-06T03:18:20;98429.81;;;-6.25;100.00
54936;BME280;40838;50.676;7.838;2023-04-06T03:20:47;98428.81;;;-6.08;100.00
54936;BME280;40838;50.676;7.838;2023-04-06T03:23:17;98425.94;;;-5.82;100.00
54936;BME280;40838;50.676;7.838;2023-04-06T03:25:49;98425.50;;;-5.93;100.00
54936;BME280;40838;50.676;7.838;2023-04-06T03:28:19;98427.69;;;-5.74;100.00
54936;BME280;40838;50.676;7.838;2023-04-06T03:31:05;98420.66;;;-5.65;100.00
54936;BME280;40838;50.676;7.838;2023-04-06T03:33:55;98419.97;;;-5.28;97.96
54936;BME280;40838;50.676;7.838;2023-04-06T03:36:33;98419.28;;;-5.22;97.86
54936;BME280;40838;50.676;7.838;2023-04-06T03:39:03;98413.59;;;-5.17;95.04
54936;BME280;40838;50.676;7.838;2023-04-06T03:41:33;98415.25;;;-5.01;93.32
54936;BME280;40838;50.676;7.838;2023-04-06T03:44:06;98423.22;;;-5.03;92.31
54936;BME280;40838;50.676;7.838;2023-04-06T03:46:33;98421.59;;;-5.04;93.10
54936;BME280;40838;50.676;7.838;2023-04-06T03:49:01;98418.59;;;-4.93;92.36
54936;BME280;40838;50.676;7.838;2023-04-06T03:51:28;98414.09;;;-4.99;92.92
54936;BME280;40838;50.676;7.838;2023-04-06T03:53:56;98421.13;;;-5.07;92.71
54936;BME280;40838;50.676;7.838;2023-04-06T03:56:22;98419.53;;;-5.08;91.77
54936;BME280;40838;50.676;7.838;2023-04-06T03:58:49;98426.22;;;-5.14;92.92
54936;BME280;40838;50.676;7.838;2023-04-06T04:01:16;98420.38;;;-5.16;91.35
54936;BME280;40838;50.676;7.838;2023-04-06T04:03:43;98436.22;;;-5.26;94.20
54936;BME280;40838;50.676;7.838;2023-04-06T04:06:14;98444.00;;;-5.26;92.83
54936;BME280;40838;50.676;7.838;2023-04-06T04:08:41;98437.41;;;-5.37;93.78
54936;BME280;40838;50.676;7.838;2023-04-06T04:11:08;98442.59;;;-5.37;92.94
54936;BME280;40838;50.676;7.838;2023-04-06T04:13:35;98436.81;;;-5.47;94.99
54936;BME280;40838;50.676;7.838;2023-04-06T04:16:04;98442.50;;;-5.51;94.44
54936;BME280;40838;50.676;7.838;2023-04-06T04:18:31;98436.13;;;-5.41;93.03
54936;BME280;40838;50.676;7.838;2023-04-06T04:20:58;98437.31;;;-5.51;95.39
54936;BME280;40838;50.676;7.838;2023-04-06T04:23:27;98442.50;;;-5.51;95.01
54936;BME280;40838;50.676;7.838;2023-04-06T04:25:53;98438.19;;;-5.36;92.10
54936;BME280;40838;50.676;7.838;2023-04-06T04:28:20;98444.16;;;-5.27;91.25
54936;BME280;40838;50.676;7.838;2023-04-06T04:30:48;98440.63;;;-5.35;92.60
54936;BME280;40838;50.676;7.838;2023-04-06T04:33:14;98440.44;;;-5.33;93.20
54936;BME280;40838;50.676;7.838;2023-04-06T04:35:42;98440.03;;;-5.45;94.28
54936;BME280;40838;50.676;7.838;2023-04-06T04:38:13;98448.00;;;-5.46;92.83
54936;BME280;40838;50.676;7.838;2023-04-06T04:40:43;98440.00;;;-5.37;92.17
54936;BME280;40838;50.676;7.838;2023-04-06T04:43:11;98434.81;;;-5.37;92.63
54936;BME280;40838;50.676;7.838;2023-04-06T04:45:38;98439.34;;;-5.39;93.05
54936;BME280;40838;50.676;7.838;2023-04-06T04:48:15;98442.16;;;-5.17;91.06
54936;BME280;40838;50.676;7.838;2023-04-06T04:50:59;98437.81;;;-5.02;88.39
54936;BME280;40838;50.676;7.838;2023-04-06T04:53:32;98445.47;;;-5.00;88.46
54936;BME280;40838;50.676;7.838;2023-04-06T04:56:08;98441.22;;;-5.24;94.08
54936;BME280;40838;50.676;7.838;2023-04-06T04:58:35;98433.97;;;-5.06;90.83
54936;BME280;40838;50.676;7.838;2023-04-06T05:01:02;98437.53;;;-5.07;90.08
54936;BME280;40838;50.676;7.838;2023-04-06T05:03:30;98438.22;;;-5.13;90.46
54936;BME280;40838;50.676;7.838;2023-04-06T05:06:01;98434.88;;;-4.99;88.13
54936;BME280;40838;50.676;7.838;2023-04-06T05:08:31;98434.72;;;-4.97;88.95
54936;BME280;40838;50.676;7.838;2023-04-06T05:10:59;98439.97;;;-4.82;86.09
54936;BME280;40838;50.676;7.838;2023-04-06T05:13:31;98440.88;;;-4.75;86.93
54936;BME280;40838;50.676;7.838;2023-04-06T05:16:04;98431.56;;;-4.70;84.75
54936;BME280;40838;50.676;7.838;2023-04-06T05:18:34;98434.09;;;-4.61;84.65
54936;BME280;40838;50.676;7.838;2023-04-06T05:21:02;98434.19;;;-4.55;85.67
54936;BME280;40838;50.676;7.838;2023-04-06T05:23:38;98439.31;;;-4.47;84.05
54936;BME280;40838;50.676;7.838;2023-04-06T05:26:05;98437.88;;;-4.49;82.83
54936;BME280;40838;50.676;7.838;2023-04-06T05:28:33;98436.47;;;-4.37;81.75
54936;BME280;40838;50.676;7.838;2023-04-06T05:31:02;98442.38;;;-4.28;82.97
54936;BME280;40838;50.676;7.838;2023-04-06T05:33:37;98438.97;;;-4.44;83.78
54936;BME280;40838;50.676;7.838;2023-04-06T05:36:08;98440.13;;;-4.31;82.28
54936;BME280;40838;50.676;7.838;2023-04-06T05:38:39;98437.63;;;-4.25;84.07
54936;BME280;40838;50.676;7.838;2023-04-06T05:41:23;98453.63;;;-3.98;81.83
54936;BME280;40838;50.676;7.838;2023-04-06T05:43:51;98447.34;;;-3.74;77.52
54936;BME280;40838;50.676;7.838;2023-04-06T05:46:18;98449.63;;;-3.50;75.93
54936;BME280;40838;50.676;7.838;2023-04-06T05:48:45;98445.38;;;-2.15;71.66
54936;BME280;40838;50.676;7.838;2023-04-06T05:51:13;98440.13;;;-1.39;64.81
54936;BME280;40838;50.676;7.838;2023-04-06T05:53:48;98441.53;;;-1.30;59.73
54936;BME280;40838;50.676;7.838;2023-04-06T05:56:14;98427.34;;;-0.74;60.84
54936;BME280;40838;50.676;7.838;2023-04-06T05:58:42;98431.56;;;-0.80;58.07
54936;BME280;40838;50.676;7.838;2023-04-06T06:01:13;98428.75;;;1.67;51.20
54936;BME280;40838;50.676;7.838;2023-04-06T06:03:45;98425.97;;;2.72;45.22
54936;BME280;40838;50.676;7.838;2023-04-06T06:06:12;98433.31;;;3.36;42.48
54936;BME280;40838;50.676;7.838;2023-04-06T06:08:59;98423.97;;;3.75;40.30
54936;BME280;40838;50.676;7.838;2023-04-06T06:11:28;98421.38;;;3.21;41.07
54936;BME280;40838;50.676;7.838;2023-04-06T06:13:56;98433.09;;;2.83;40.78
54936;BME280;40838;50.676;7.838;2023-04-06T06:16:25;98423.91;;;4.34;39.95
54936;BME280;40838;50.676;7.838;2023-04-06T06:18:52;98435.94;;;2.52;42.00
54936;BME280;40838;50.676;7.838;2023-04-06T06:21:19;98420.06;;;4.82;37.68
54936;BME280;40838;50.676;7.838;2023-04-06T06:23:46;98431.75;;;4.57;37.79
54936;BME280;40838;50.676;7.838;2023-04-06T06:26:17;98427.16;;;5.27;36.36
54936;BME280;40838;50.676;7.838;2023-04-06T06:28:44;98422.59;;;5.73;34.79
54936;BME280;40838;50.676;7.838;2023-04-06T06:31:13;98429.94;;;5.20;34.99
54936;BME280;40838;50.676;7.838;2023-04-06T06:33:41;98424.75;;;5.76;35.09
54936;BME280;40838;50.676;7.838;2023-04-06T06:36:08;98427.75;;;3.79;35.48
54936;BME280;40838;50.676;7.838;2023-04-06T06:38:36;98425.00;;;5.57;35.50
54936;BME280;40838;50.676;7.838;2023-04-06T06:41:04;98428.59;;;4.20;35.69
54936;BME280;40838;50.676;7.838;2023-04-06T06:43:33;98431.28;;;4.60;37.74
54936;BME280;40838;50.676;7.838;2023-04-06T06:46:05;98431.22;;;4.72;36.54
54936;BME280;40838;50.676;7.838;2023-04-06T06:48:32;98426.66;;;5.64;35.06
54936;BME280;40838;50.676;7.838;2023-04-06T06:51:01;98429.06;;;5.65;35.48
54936;BME280;40838;50.676;7.838;2023-04-06T06:53:28;98441.63;;;4.79;36.15
54936;BME280;40838;50.676;7.838;2023-04-06T06:55:55;98435.22;;;5.03;35.89
54936;BME280;40838;50.676;7.838;2023-04-06T06:58:22;98428.19;;;5.76;34.86
54936;BME280;40838;50.676;7.838;2023-04-06T07:00:49;98440.78;;;4.09;37.24
54936;BME280;40838;50.676;7.838;2023-04-06T07:03:16;98434.53;;;4.51;37.61
54936;BME280;40838;50.676;7.838;2023-04-06T07:05:47;98435.47;;;4.44;38.18
54936;BME280;40838;50.676;7.838;2023-04-06T07:08:20;98434.56;;;4.39;38.64
54936;BME280;40838;50.676;7.838;2023-04-06T07:10:47;98438.59;;;4.30;38.18
54936;BME280;40838;50.676;7.838;2023-04-06T07:13:14;98428.97;;;4.93;37.58
54936;BME280;40838;50.676;7.838;2023-04-06T07:15:44;98428.38;;;4.33;38.76
54936;BME280;40838;50.676;7.838;2023-04-06T07:18:12;98426.66;;;4.39;38.69
54936;BME280;40838;50.676;7.838;2023-04-06T07:20:39;98435.28;;;3.99;41.21
54936;BME280;40838;50.676;7.838;2023-04-06T07:23:06;98433.56;;;4.28;39.95
54936;BME280;40838;50.676;7.838;2023-04-06T07:25:34;98427.03;;;4.59;39.85
54936;BME280;40838;50.676;7.838;2023-04-06T07:28:02;98430.00;;;4.63;39.67
54936;BME280;40838;50.676;7.838;2023-04-06T07:30:29;98429.88;;;4.70;39.66
54936;BME280;40838;50.676;7.838;2023-04-06T07:32:56;98434.53;;;4.51;40.36
54936;BME280;40838;50.676;7.838;2023-04-06T07:35:26;98431.56;;;4.76;40.48
54936;BME280;40838;50.676;7.838;2023-04-06T07:37:54;98433.53;;;5.14;39.59
54936;BME280;40838;50.676;7.838;2023-04-06T07:40:21;98432.34;;;5.22;40.54
54936;BME280;40838;50.676;7.838;2023-04-06T07:42:50;98426.28;;;4.47;41.08
54936;BME280;40838;50.676;7.838;2023-04-06T07:45:17;98426.06;;;4.77;41.54
54936;BME280;40838;50.676;7.838;2023-04-06T07:47:45;98416.81;;;5.76;40.05
54936;BME280;40838;50.676;7.838;2023-04-06T07:50:12;98425.84;;;4.67;41.88
54936;BME280;40838;50.676;7.838;2023-04-06T07:52:39;98430.81;;;3.29;46.06
54936;BME280;40838;50.676;7.838;2023-04-06T07:55:07;98422.59;;;3.84;46.70
54936;BME280;40838;50.676;7.838;2023-04-06T07:57:34;98421.16;;;4.69;43.25
54936;BME280;40838;50.676;7.838;2023-04-06T08:00:03;98423.84;;;4.86;42.37
54936;BME280;40838;50.676;7.838;2023-04-06T08:02:37;98426.41;;;4.40;43.51
54936;BME280;40838;50.676;7.838;2023-04-06T08:05:05;98425.75;;;4.90;43.07
54936;BME280;40838;50.676;7.838;2023-04-06T08:07:32;98422.56;;;4.60;44.55
54936;BME280;40838;50.676;7.838;2023-04-06T08:09:59;98410.63;;;4.57;44.75
54936;BME280;40838;50.676;7.838;2023-04-06T08:12:26;98420.69;;;4.32;44.03
54936;BME280;40838;50.676;7.838;2023-04-06T08:14:53;98426.72;;;4.44;45.52
54936;BME280;40838;50.676;7.838;2023-04-06T08:17:21;98418.50;;;5.48;41.42
54936;BME280;40838;50.676;7.838;2023-04-06T08:19:48;98422.31;;;4.90;43.64
54936;BME280;40838;50.676;7.838;2023-04-06T08:22:14;98418.72;;;5.80;42.41
54936;BME280;40838;50.676;7.838;2023-04-06T08:24:41;98421.38;;;5.13;43.53
54936;BME280;40838;50.676;7.838;2023-04-06T08:27:08;98419.56;;;4.85;45.60
54936;BME280;40838;50.676;7.838;2023-04-06T08:29:35;98425.88;;;4.27;48.29
54936;BME280;40838;50.676;7.838;2023-04-06T08:32:02;98422.28;;;5.19;45.13
54936;BME280;40838;50.676;7.838;2023-04-06T08:34:32;98416.00;;;5.92;42.16
54936;BME280;40838;50.676;7.838;2023-04-06T08:36:59;98420.47;;;6.80;39.75
54936;BME280;40838;50.676;7.838;2023-04-06T08:39:27;98421.19;;;6.75;41.46
54936;BME280;40838;50.676;7.838;2023-04-06T08:41:56;98418.31;;;6.06;41.06
54936;BME280;40838;50.676;7.838;2023-04-06T08:44:25;98421.34;;;4.79;43.98
54936;BME280;40838;50.676;7.838;2023-04-06T08:46:53;98411.91;;;5.85;42.50
54936;BME280;40838;50.676;7.838;2023-04-06T08:49:20;98412.38;;;6.42;42.27
54936;BME280;40838;50.676;7.838;2023-04-06T08:51:49;98423.34;;;4.32;47.27
54936;BME280;40838;50.676;7.838;2023-04-06T08:54:16;98431.09;;;4.50;47.49
54936;BME280;40838;50.676;7.838;2023-04-06T08:56:43;98412.44;;;5.65;44.83
54936;BME280;40838;50.676;7.838;2023-04-06T08:59:10;98413.38;;;6.58;43.96
54936;BME280;40838;50.676;7.838;2023-04-06T09:01:39;98413.69;;;5.79;45.07
54936;BME280;40838;50.676;7.838;2023-04-06T09:04:08;98411.38;;;5.66;43.77
54936;BME280;40838;50.676;7.838;2023-04-06T09:06:36;98404.09;;;4.88;46.91
54936;BME280;40838;50.676;7.838;2023-04-06T09:09:05;98414.50;;;5.29;49.28
54936;BME280;40838;50.676;7.838;2023-04-06T09:11:42;98408.25;;;5.52;46.70
54936;BME280;40838;50.676;7.838;2023-04-06T09:14:09;98415.31;;;5.46;46.52
54936;BME280;40838;50.676;7.838;2023-04-06T09:16:40;98411.22;;;6.82;43.40
54936;BME280;40838;50.676;7.838;2023-04-06T09:19:08;98412.06;;;6.61;44.83
54936;BME280;40838;50.676;7.838;2023-04-06T09:21:35;98409.00;;;5.47;46.18
54936;BME280;40838;50.676;7.838;2023-04-06T09:24:02;98412.19;;;5.49;48.84
54936;BME280;40838;50.676;7.838;2023-04-06T09:26:43;98414.94;;;5.93;49.34
54936;BME280;40838;50.676;7.838;2023-04-06T09:29:22;98418.19;;;5.11;49.29
54936;BME280;40838;50.676;7.838;2023-04-06T09:31:49;98410.94;;;5.35;45.93
54936;BME280;40838;50.676;7.838;2023-04-06T09:34:21;98408.66;;;5.61;46.63
54936;BME280;40838;50.676;7.838;2023-04-06T09:36:48;98399.47;;;4.67;50.07
54936;BME280;40838;50.676;7.838;2023-04-06T09:39:20;98405.88;;;5.33;48.69
54936;BME280;40838;50.676;7.838;2023-04-06T09:41:50;98401.47;;;5.39;49.28
54936;BME280;40838;50.676;7.838;2023-04-06T09:44:18;98406.47;;;4.90;49.89
54936;BME280;40838;50.676;7.838;2023-04-06T09:46:46;98406.56;;;5.79;47.96
54936;BME280;40838;50.676;7.838;2023-04-06T09:49:14;98396.16;;;7.95;43.67
54936;BME280;40838;50.676;7.838;2023-04-06T09:51:45;98393.38;;;7.00;44.77
54936;BME280;40838;50.676;7.838;2023-04-06T09:54:15;98396.50;;;5.26;47.02
54936;BME280;40838;50.676;7.838;2023-04-06T09:56:46;98394.25;;;5.85;46.59
54936;BME280;40838;50.676;7.838;2023-04-06T09:59:20;98397.41;;;7.39;45.05
54936;BME280;40838;50.676;7.838;2023-04-06T10:01:51;98395.25;;;7.04;44.19
54936;BME280;40838;50.676;7.838;2023-04-06T10:04:27;98400.50;;;5.45;46.03
54936;BME280;40838;50.676;7.838;2023-04-06T10:06:57;98394.00;;;4.85;48.29
54936;BME280;40838;50.676;7.838;2023-04-06T10:09:27;98395.44;;;4.93;48.27
54936;BME280;40838;50.676;7.838;2023-04-06T10:12:02;98397.56;;;6.41;45.00
54936;BME280;40838;50.676;7.838;2023-04-06T10:14:31;98391.31;;;6.25;45.33
54936;BME280;40838;50.676;7.838;2023-04-06T10:17:00;98390.13;;;5.94;44.88
54936;BME280;40838;50.676;7.838;2023-04-06T10:19:34;98379.56;;;6.98;45.19
54936;BME280;40838;50.676;7.838;2023-04-06T10:22:05;98384.75;;;6.82;41.65
54936;BME280;40838;50.676;7.838;2023-04-06T10:24:35;98389.09;;;4.77;47.44
54936;BME280;40838;50.676;7.838;2023-04-06T10:27:03;98391.72;;;5.06;46.64
54936;BME280;40838;50.676;7.838;2023-04-06T10:29:42;98385.34;;;5.57;45.30
54936;BME280;40838;50.676;7.838;2023-04-06T10:32:10;98384.38;;;5.64;45.12
54936;BME280;40838;50.676;7.838;2023-04-06T10:34:37;98410.72;;;4.91;46.66
54936;BME280;40838;50.676;7.838;2023-04-06T10:37:14;98380.31;;;5.05;47.35
54936;BME280;40838;50.676;7.838;2023-04-06T10:39:47;98399.69;;;4.94;50.29
54936;BME280;40838;50.676;7.838;2023-04-06T10:42:14;98386.66;;;5.21;48.05
54936;BME280;40838;50.676;7.838;2023-04-06T10:44:49;98383.66;;;5.85;46.94
54936;BME280;40838;50.676;7.838;2023-04-06T10:47:17;98409.88;;;5.36;46.96
54936;BME280;40838;50.676;7.838;2023-04-06T10:49:44;98385.59;;;5.05;48.57
54936;BME280;40838;50.676;7.838;2023-04-06T10:52:11;98386.41;;;4.89;50.28
54936;BME280;40838;50.676;7.838;2023-04-06T10:54:42;98401.81;;;5.81;50.07
54936;BME280;40838;50.676;7.838;2023-04-06T10:57:10;98390.41;;;5.25;47.58
54936;BME280;40838;50.676;7.838;2023-04-06T10:59:36;98383.78;;;5.95;48.59
54936;BME280;40838;50.676;7.838;2023-04-06T11:02:05;98381.19;;;5.62;48.45
54936;BME280;40838;50.676;7.838;2023-04-06T11:04:32;98377.19;;;6.96;46.75
54936;BME280;40838;50.676;7.838;2023-04-06T11:06:58;98382.84;;;6.51;49.99
54936;BME280;40838;50.676;7.838;2023-04-06T11:09:26;98383.41;;;5.87;47.47
54936;BME280;40838;50.676;7.838;2023-04-06T11:11:53;98384.66;;;6.01;49.17
54936;BME280;40838;50.676;7.838;2023-04-06T11:14:20;98386.75;;;5.09;49.16
54936;BME280;40838;50.676;7.838;2023-04-06T11:16:48;98385.91;;;4.75;52.00
54936;BME280;40838;50.676;7.838;2023-04-06T11:19:17;98383.31;;;4.63;52.94
54936;BME280;40838;50.676;7.838;2023-04-06T11:21:45;98377.91;;;4.87;52.71
54936;BME280;40838;50.676;7.838;2023-04-06T11:24:14;98373.75;;;5.58;51.63
54936;BME280;40838;50.676;7.838;2023-04-06T11:26:43;98371.16;;;6.46;50.29
54936;BME280;40838;50.676;7.838;2023-04-06T11:29:12;98373.16;;;6.12;48.33
54936;BME280;40838;50.676;7.838;2023-04-06T11:31:40;98361.50;;;6.35;49.07
54936;BME280;40838;50.676;7.838;2023-04-06T11:34:15;98364.97;;;5.53;50.59
54936;BME280;40838;50.676;7.838;2023-04-06T11:36:45;98369.06;;;5.10;55.32
54936;BME280;40838;50.676;7.838;2023-04-06T11:39:18;98351.16;;;6.34;51.11
54936;BME280;40838;50.676;7.838;2023-04-06T11:41:47;98344.13;;;5.95;49.89
54936;BME280;40838;50.676;7.838;2023-04-06T11:44:14;98348.69;;;5.83;52.97
54936;BME280;40838;50.676;7.838;2023-04-06T11:46:41;98342.75;;;6.15;51.08
54936;BME280;40838;50.676;7.838;2023-04-06T11:49:17;98334.66;;;7.13;52.12
54936;BME280;40838;50.676;7.838;2023-04-06T11:51:46;98340.25;;;6.52;51.83
54936;BME280;40838;50.676;7.838;2023-04-06T11:54:13;98343.38;;;6.76;51.32
54936;BME280;40838;50.676;7.838;2023-04-06T11:56:39;98334.91;;;6.47;49.12
54936;BME280;40838;50.676;7.838;2023-04-06T11:59:06;98338.03;;;5.95;49.52
54936;BME280;40838;50.676;7.838;2023-04-06T12:01:33;98334.56;;;6.38;49.06
54936;BME280;40838;50.676;7.838;2023-04-06T12:04:00;98331.66;;;6.67;50.60
54936;BME280;40838;50.676;7.838;2023-04-06T12:06:27;98327.16;;;7.32;47.02
54936;BME280;40838;50.676;7.838;2023-04-06T12:08:58;98321.09;;;6.72;47.34
54936;BME280;40838;50.676;7.838;2023-04-06T12:11:25;98318.56;;;6.82;47.75
54936;BME280;40838;50.676;7.838;2023-04-06T12:13:53;98335.91;;;6.41;46.38
54936;BME280;40838;50.676;7.838;2023-04-06T12:16:20;98329.13;;;6.01;49.02
54936;BME280;40838;50.676;7.838;2023-04-06T12:18:46;98336.19;;;5.56;50.52
54936;BME280;40838;50.676;7.838;2023-04-06T12:21:13;98332.47;;;6.18;49.48
54936;BME280;40838;50.676;7.838;2023-04-06T12:23:40;98324.75;;;6.39;50.41
54936;BME280;40838;50.676;7.838;2023-04-06T12:26:08;98321.53;;;6.91;45.21
54936;BME280;40838;50.676;7.838;2023-04-06T12:28:36;98309.19;;;5.93;46.55
54936;BME280;40838;50.676;7.838;2023-04-06T12:31:03;98319.28;;;7.10;46.37
54936;BME280;40838;50.676;7.838;2023-04-06T12:33:29;98327.34;;;6.34;46.97
54936;BME280;40838;50.676;7.838;2023-04-06T12:35:56;98328.63;;;6.04;48.39
54936;BME280;40838;50.676;7.838;2023-04-06T12:38:23;98328.75;;;5.75;47.00
54936;BME280;40838;50.676;7.838;2023-04-06T12:40:50;98329.59;;;5.98;47.72
54936;BME280;40838;50.676;7.838;2023-04-06T12:43:18;98334.69;;;6.27;45.97
54936;BME280;40838;50.676;7.838;2023-04-06T12:45:46;98324.13;;;6.54;47.10
54936;BME280;40838;50.676;7.838;2023-04-06T12:48:12;98322.25;;;5.83;47.11
54936;BME280;40838;50.676;7.838;2023-04-06T12:50:39;98324.41;;;5.64;48.48
54936;BME280;40838;50.676;7.838;2023-04-06T12:53:06;98325.25;;;6.63;49.26
54936;BME280;40838;50.676;7.838;2023-04-06T12:55:33;98325.53;;;6.66;46.62
54936;BME280;40838;50.676;7.838;2023-04-06T12:58:01;98316.41;;;6.79;45.85
54936;BME280;40838;50.676;7.838;2023-04-06T13:00:29;98312.81;;;6.96;47.94
54936;BME280;40838;50.676;7.838;2023-04-06T13:02:57;98329.47;;;6.59;45.59
54936;BME280;40838;50.676;7.838;2023-04-06T13:05:24;98324.88;;;6.49;46.94
54936;BME280;40838;50.676;7.838;2023-04-06T13:07:51;98316.13;;;6.81;46.17
54936;BME280;40838;50.676;7.838;2023-04-06T13:10:17;98322.91;;;6.39;46.08
54936;BME280;40838;50.676;7.838;2023-04-06T13:12:44;98306.72;;;6.95;44.60
54936;BME280;40838;50.676;7.838;2023-04-06T13:15:11;98311.28;;;7.00;47.34